Time,TemperatureF,DewpointF,PressureIn,WindDirection,WindDirectionDegrees,WindSpeedMPH,WindSpeedGustMPH,Humidity,HourlyPrecipIn,Conditions,Clouds,dailyrainin,SoftwareType,DateUTC
2013-06-20 00:07:00,56.1,51.3,30.08,SSE,157,0.0,-999.0,84,-99.99,,,0.00,Acu-Link.com,2013-06-20 04:07:00,
2013-06-20 00:22:00,55.9,50.8,30.08,ESE,112,0.0,-999.0,83,-99.99,,,0.00,Acu-Link.com,2013-06-20 04:22:00,
2013-06-20 00:37:00,55.4,49.7,30.08,SW,225,0.0,-999.0,81,-99.99,,,0.00,Acu-Link.com,2013-06-20 04:37:00,
2013-06-20 00:52:00,55.0,49.3,30.08,East,90,0.0,-999.0,81,-99.99,,,0.00,Acu-Link.com,2013-06-20 04:52:00,
2013-06-20 01:07:00,54.5,48.8,30.09,SSW,202,0.0,-999.0,81,-99.99,,,0.00,Acu-Link.com,2013-06-20 05:07:00,
2013-06-20 01:22:00,53.8,48.1,30.08,ESE,112,0.0,-999.0,81,-99.99,,,0.00,Acu-Link.com,2013-06-20 05:22:00,
2013-06-20 01:37:00,53.2,47.8,30.09,ESE,112,0.0,-999.0,82,-99.99,,,0.00,Acu-Link.com,2013-06-20 05:37:00,
2013-06-20 01:52:00,52.9,47.9,30.09,ESE,112,0.0,-999.0,83,-99.99,,,0.00,Acu-Link.com,2013-06-20 05:52:00,
2013-06-20 02:07:00,52.5,47.8,30.09,SE,135,0.0,-999.0,84,-99.99,,,0.00,Acu-Link.com,2013-06-20 06:07:00,
2013-06-20 02:23:00,52.3,47.9,30.09,South,180,0.0,-999.0,85,-99.99,,,0.00,Acu-Link.com,2013-06-20 06:23:00,
2013-06-20 02:38:00,52.2,48.1,30.09,SSW,202,0.0,-999.0,86,-99.99,,,0.00,Acu-Link.com,2013-06-20 06:38:00,
2013-06-20 02:53:00,51.6,47.9,30.09,ESE,112,0.0,-999.0,87,-99.99,,,0.00,Acu-Link.com,2013-06-20 06:53:00,
2013-06-20 03:08:00,51.3,48.2,30.09,ESE,112,0.0,-999.0,89,-99.99,,,0.00,Acu-Link.com,2013-06-20 07:08:00,
2013-06-20 03:23:00,50.9,48.1,30.08,South,180,0.0,-999.0,90,-99.99,,,0.00,Acu-Link.com,2013-06-20 07:23:00,
2013-06-20 03:38:00,50.2,47.7,30.08,South,180,0.0,-999.0,91,-99.99,,,0.00,Acu-Link.com,2013-06-20 07:38:00,
2013-06-20 03:53:00,50.2,48.3,30.08,SSE,157,0.0,-999.0,93,-99.99,,,0.00,Acu-Link.com,2013-06-20 07:53:00,
2013-06-20 04:09:00,49.8,48.1,30.08,ESE,112,0.0,-999.0,94,-99.99,,,0.00,Acu-Link.com,2013-06-20 08:09:00,
2013-06-20 04:24:00,49.5,47.8,30.09,ESE,112,0.0,-999.0,94,-99.99,,,0.00,Acu-Link.com,2013-06-20 08:24:00,
2013-06-20 04:39:00,49.5,48.1,30.09,ESE,112,0.0,-999.0,95,-99.99,,,0.00,Acu-Link.com,2013-06-20 08:39:00,
2013-06-20 04:54:00,49.3,48.2,30.09,ESE,112,0.0,-999.0,96,-99.99,,,0.00,Acu-Link.com,2013-06-20 08:54:00,
2013-06-20 05:09:00,49.3,48.5,30.09,South,180,0.0,-999.0,97,-99.99,,,0.00,Acu-Link.com,2013-06-20 09:09:00,
2013-06-20 05:24:00,49.3,48.5,30.09,SSE,157,0.0,-999.0,97,-99.99,,,0.00,Acu-Link.com,2013-06-20 09:24:00,
2013-06-20 05:39:00,48.7,47.9,30.10,ESE,112,0.0,-999.0,97,-99.99,,,0.00,Acu-Link.com,2013-06-20 09:39:00,
2013-06-20 05:54:00,48.0,46.6,30.10,ESE,112,0.0,-999.0,95,-99.99,,,0.00,Acu-Link.com,2013-06-20 09:54:00,
2013-06-20 06:09:00,47.7,46.6,30.10,ESE,112,0.0,-999.0,96,-99.99,,,0.00,Acu-Link.com,2013-06-20 10:09:00,
2013-06-20 06:25:00,48.0,47.2,30.11,SE,135,0.0,-999.0,97,-99.99,,,0.00,Acu-Link.com,2013-06-20 10:25:00,
2013-06-20 06:40:00,48.2,47.1,30.11,ESE,112,0.0,-999.0,96,-99.99,,,0.00,Acu-Link.com,2013-06-20 10:40:00,
2013-06-20 06:55:00,49.3,48.5,30.12,South,180,0.0,-999.0,97,-99.99,,,0.00,Acu-Link.com,2013-06-20 10:55:00,
2013-06-20 07:10:00,50.7,49.9,30.12,South,180,0.0,-999.0,97,-99.99,,,0.00,Acu-Link.com,2013-06-20 11:10:00,
2013-06-20 07:25:00,52.7,51.3,30.13,South,180,0.0,-999.0,95,-99.99,,,0.00,Acu-Link.com,2013-06-20 11:25:00,
2013-06-20 07:40:00,54.7,52.1,30.13,South,180,0.0,-999.0,91,-99.99,,,0.00,Acu-Link.com,2013-06-20 11:40:00,
2013-06-20 07:55:00,56.3,53.1,30.14,South,180,0.0,-999.0,89,-99.99,,,0.00,Acu-Link.com,2013-06-20 11:55:00,
2013-06-20 08:10:00,57.7,53.9,30.14,South,180,0.0,-999.0,87,-99.99,,,0.00,Acu-Link.com,2013-06-20 12:10:00,
2013-06-20 08:29:00,61.3,55.1,30.14,SSE,157,0.0,-999.0,80,-99.99,,,0.00,Acu-Link.com,2013-06-20 12:29:00,
2013-06-20 08:44:00,64.2,56.1,30.14,ESE,112,0.0,-999.0,75,-99.99,,,0.00,Acu-Link.com,2013-06-20 12:44:00,
2013-06-20 08:59:00,65.5,55.8,30.13,ESE,112,0.0,-999.0,71,-99.99,,,0.00,Acu-Link.com,2013-06-20 12:59:00,
2013-06-20 09:14:00,67.1,56.2,30.13,NE,45,0.0,-999.0,68,-99.99,,,0.00,Acu-Link.com,2013-06-20 13:14:00,
2013-06-20 09:30:00,68.4,56.6,30.14,SSE,157,0.0,-999.0,66,-99.99,,,0.00,Acu-Link.com,2013-06-20 13:30:00,
2013-06-20 09:45:00,69.3,56.6,30.14,South,180,0.0,-999.0,64,-99.99,,,0.00,Acu-Link.com,2013-06-20 13:45:00,
2013-06-20 10:00:00,69.3,56.6,30.13,South,180,0.0,-999.0,64,-99.99,,,0.00,Acu-Link.com,2013-06-20 14:00:00,
2013-06-20 10:15:00,70.7,56.1,30.13,ESE,112,0.0,-999.0,60,-99.99,,,0.00,Acu-Link.com,2013-06-20 14:15:00,
2013-06-20 10:30:00,72.5,57.8,30.13,SE,135,0.0,-999.0,60,-99.99,,,0.00,Acu-Link.com,2013-06-20 14:30:00,
2013-06-20 10:45:00,72.9,56.8,30.12,SSE,157,0.0,-999.0,57,-99.99,,,0.00,Acu-Link.com,2013-06-20 14:45:00,
2013-06-20 11:00:00,74.3,58.1,30.11,South,180,0.0,-999.0,57,-99.99,,,0.00,Acu-Link.com,2013-06-20 15:00:00,
2013-06-20 11:15:00,75.2,59.4,30.12,ESE,112,0.0,-999.0,58,-99.99,,,0.00,Acu-Link.com,2013-06-20 15:15:00,
2013-06-20 11:30:00,75.6,59.3,30.12,SE,135,0.0,-999.0,57,-99.99,,,0.00,Acu-Link.com,2013-06-20 15:30:00,
2013-06-20 11:46:00,76.1,58.2,30.12,SSE,157,0.0,-999.0,54,-99.99,,,0.00,Acu-Link.com,2013-06-20 15:46:00,
2013-06-20 12:01:00,75.2,59.4,30.13,ESE,112,0.0,-999.0,58,-99.99,,,0.00,Acu-Link.com,2013-06-20 16:01:00,
2013-06-20 12:16:00,75.7,57.9,30.12,ESE,112,3.2,-999.0,54,-99.99,,,0.00,Acu-Link.com,2013-06-20 16:16:00,
2013-06-20 12:31:00,76.1,58.7,30.12,South,180,0.0,-999.0,55,-99.99,,,0.00,Acu-Link.com,2013-06-20 16:31:00,
2013-06-20 12:46:00,76.6,57.6,30.11,NE,45,3.7,-999.0,52,-99.99,,,0.00,Acu-Link.com,2013-06-20 16:46:00,
2013-06-20 13:01:00,78.1,60.1,30.12,NE,45,4.7,-999.0,54,-99.99,,,0.00,Acu-Link.com,2013-06-20 17:01:00,
2013-06-20 13:17:00,77.4,56.2,30.11,SE,135,0.0,-999.0,48,-99.99,,,0.00,Acu-Link.com,2013-06-20 17:17:00,
2013-06-20 13:32:00,78.6,57.2,30.11,South,180,0.0,-999.0,48,-99.99,,,0.00,Acu-Link.com,2013-06-20 17:32:00,
2013-06-20 13:47:00,79.2,58.9,30.11,South,180,0.0,-999.0,50,-99.99,,,0.00,Acu-Link.com,2013-06-20 17:47:00,
2013-06-20 14:02:00,79.3,57.3,30.10,South,180,0.0,-999.0,47,-99.99,,,0.00,Acu-Link.com,2013-06-20 18:02:00,
2013-06-20 14:17:00,79.9,55.4,30.09,SE,135,0.0,-999.0,43,-99.99,,,0.00,Acu-Link.com,2013-06-20 18:17:00,
2013-06-20 14:32:00,79.5,56.9,30.09,ESE,112,0.0,-999.0,46,-99.99,,,0.00,Acu-Link.com,2013-06-20 18:32:00,
2013-06-20 14:47:00,79.9,57.2,30.08,NNE,22,2.7,-999.0,46,-99.99,,,0.00,Acu-Link.com,2013-06-20 18:47:00,
2013-06-20 15:02:00,80.1,58.6,30.08,SSE,157,0.0,-999.0,48,-99.99,,,0.00,Acu-Link.com,2013-06-20 19:02:00,
2013-06-20 15:17:00,80.8,57.5,30.09,WNW,292,5.3,-999.0,45,-99.99,,,0.00,Acu-Link.com,2013-06-20 19:17:00,
2013-06-20 15:33:00,80.8,56.2,30.09,South,180,0.0,-999.0,43,-99.99,,,0.00,Acu-Link.com,2013-06-20 19:33:00,
2013-06-20 15:48:00,80.1,56.8,30.09,South,180,0.0,-999.0,45,-99.99,,,0.00,Acu-Link.com,2013-06-20 19:48:00,
2013-06-20 16:03:00,81.0,58.2,30.08,West,270,0.0,-999.0,46,-99.99,,,0.00,Acu-Link.com,2013-06-20 20:03:00,
2013-06-20 16:18:00,79.9,56.0,30.08,NE,45,0.0,-999.0,44,-99.99,,,0.00,Acu-Link.com,2013-06-20 20:18:00,
2013-06-20 16:33:00,81.5,58.1,30.08,SSE,157,0.0,-999.0,45,-99.99,,,0.00,Acu-Link.com,2013-06-20 20:33:00,
2013-06-20 16:48:00,81.0,57.6,30.07,ESE,112,0.0,-999.0,45,-99.99,,,0.00,Acu-Link.com,2013-06-20 20:48:00,
2013-06-20 17:03:00,82.2,58.7,30.07,ESE,112,0.0,-999.0,45,-99.99,,,0.00,Acu-Link.com,2013-06-20 21:03:00,
2013-06-20 17:18:00,82.2,56.1,30.06,NE,45,2.7,-999.0,41,-99.99,,,0.00,Acu-Link.com,2013-06-20 21:18:00,
2013-06-20 17:33:00,81.9,55.9,30.06,SSE,157,0.0,-999.0,41,-99.99,,,0.00,Acu-Link.com,2013-06-20 21:33:00,
2013-06-20 17:48:00,83.3,57.8,30.05,ENE,67,0.0,-999.0,42,-99.99,,,0.00,Acu-Link.com,2013-06-20 21:48:00,
2013-06-20 18:04:00,88.2,57.8,30.05,SE,135,0.0,-999.0,36,-99.99,,,0.00,Acu-Link.com,2013-06-20 22:04:00,
2013-06-20 18:19:00,91.2,58.0,30.05,NE,45,2.2,-999.0,33,-99.99,,,0.00,Acu-Link.com,2013-06-20 22:19:00,
2013-06-20 18:34:00,89.8,57.6,30.05,SSE,157,0.0,-999.0,34,-99.99,,,0.00,Acu-Link.com,2013-06-20 22:34:00,
2013-06-20 18:49:00,89.2,56.3,30.05,East,90,0.0,-999.0,33,-99.99,,,0.00,Acu-Link.com,2013-06-20 22:49:00,
2013-06-20 19:04:00,89.4,56.5,30.05,NE,45,2.7,-999.0,33,-99.99,,,0.00,Acu-Link.com,2013-06-20 23:04:00,
2013-06-20 19:19:00,89.4,56.5,30.05,East,90,0.0,-999.0,33,-99.99,,,0.00,Acu-Link.com,2013-06-20 23:19:00,
2013-06-20 19:35:00,86.7,55.7,30.05,ENE,67,3.2,-999.0,35,-99.99,,,0.00,Acu-Link.com,2013-06-20 23:35:00,
2013-06-20 19:50:00,86.9,55.9,30.05,NE,45,0.0,-999.0,35,-99.99,,,0.00,Acu-Link.com,2013-06-20 23:50:00,
2013-06-20 20:05:00,86.5,57.1,30.05,NNE,22,0.0,-999.0,37,-99.99,,,0.00,Acu-Link.com,2013-06-21 00:05:00,
2013-06-20 20:20:00,84.7,55.5,30.06,NNE,22,0.0,-999.0,37,-99.99,,,0.00,Acu-Link.com,2013-06-21 00:20:00,
2013-06-20 20:35:00,82.0,57.9,30.06,ENE,67,0.0,-999.0,44,-99.99,,,0.00,Acu-Link.com,2013-06-21 00:35:00,
2013-06-20 20:50:00,77.7,58.1,30.06,South,180,0.0,-999.0,51,-99.99,,,0.00,Acu-Link.com,2013-06-21 00:50:00,
2013-06-20 21:05:00,73.0,58.7,30.06,SSE,157,0.0,-999.0,61,-99.99,,,0.00,Acu-Link.com,2013-06-21 01:05:00,
2013-06-20 21:20:00,69.8,58.8,30.07,South,180,0.0,-999.0,68,-99.99,,,0.00,Acu-Link.com,2013-06-21 01:20:00,
2013-06-20 21:35:00,68.4,57.8,30.08,SE,135,0.0,-999.0,69,-99.99,,,0.00,Acu-Link.com,2013-06-21 01:35:00,
2013-06-20 21:51:00,67.1,57.8,30.08,SE,135,0.0,-999.0,72,-99.99,,,0.00,Acu-Link.com,2013-06-21 01:51:00,
2013-06-20 22:06:00,65.7,57.6,30.08,ESE,112,0.0,-999.0,75,-99.99,,,0.00,Acu-Link.com,2013-06-21 02:06:00,
2013-06-20 22:21:00,64.8,57.1,30.09,SSE,157,0.0,-999.0,76,-99.99,,,0.00,Acu-Link.com,2013-06-21 02:21:00,
2013-06-20 22:36:00,63.7,57.4,30.09,East,90,0.0,-999.0,80,-99.99,,,0.00,Acu-Link.com,2013-06-21 02:36:00,
2013-06-20 22:51:00,63.1,57.2,30.09,SSW,202,0.0,-999.0,81,-99.99,,,0.00,Acu-Link.com,2013-06-21 02:51:00,
2013-06-20 23:06:00,62.4,56.8,30.10,SSW,202,0.0,-999.0,82,-99.99,,,0.00,Acu-Link.com,2013-06-21 03:06:00,
2013-06-20 23:21:00,61.9,57.0,30.10,SSW,202,0.0,-999.0,84,-99.99,,,0.00,Acu-Link.com,2013-06-21 03:21:00,
2013-06-20 23:36:00,61.3,56.7,30.10,SSW,202,0.0,-999.0,85,-99.99,,,0.00,Acu-Link.com,2013-06-21 03:36:00,
2013-06-20 23:51:00,61.5,56.3,30.11,SSW,202,0.0,-999.0,83,-99.99,,,0.00,Acu-Link.com,2013-06-21 03:51:00,